sensor_id;sensor_type;location;lat;lon;timestamp;temperature;humidity
46159;DHT22;31888;44.512;26.104;2023-08-24T00:01:04;25.30;90.30
46159;DHT22;31888;44.512;26.104;2023-08-24T00:03:29;25.30;90.40
46159;DHT22;31888;44.512;26.104;2023-08-24T00:05:52;25.30;90.30
46159;DHT22;31888;44.512;26.104;2023-08-24T00:08:16;25.30;90.40
46159;DHT22;31888;44.512;26.104;2023-08-24T00:10:43;25.30;90.40
46159;DHT22;31888;44.512;26.104;2023-08-24T00:13:07;25.30;90.50
46159;DHT22;31888;44.512;26.104;2023-08-24T00:15:31;25.20;90.60
46159;DHT22;31888;44.512;26.104;2023-08-24T00:17:55;25.20;90.90
46159;DHT22;31888;44.512;26.104;2023-08-24T00:20:19;25.20;90.80
46159;DHT22;31888;44.512;26.104;2023-08-24T00:22:43;25.10;91.00
46159;DHT22;31888;44.512;26.104;2023-08-24T00:25:07;25.10;91.00
46159;DHT22;31888;44.512;26.104;2023-08-24T00:27:33;25.10;91.10
46159;DHT22;31888;44.512;26.104;2023-08-24T00:29:57;25.10;91.20
46159;DHT22;31888;44.512;26.104;2023-08-24T00:32:22;25.00;91.20
46159;DHT22;31888;44.512;26.104;2023-08-24T00:34:46;25.00;91.30
46159;DHT22;31888;44.512;26.104;2023-08-24T00:37:10;25.00;91.30
46159;DHT22;31888;44.512;26.104;2023-08-24T00:39:34;25.00;91.50
46159;DHT22;31888;44.512;26.104;2023-08-24T00:41:59;25.00;91.50
46159;DHT22;31888;44.512;26.104;2023-08-24T00:44:26;25.00;91.50
46159;DHT22;31888;44.512;26.104;2023-08-24T00:46:50;25.00;91.60
46159;DHT22;31888;44.512;26.104;2023-08-24T00:49:14;24.90;91.70
46159;DHT22;31888;44.512;26.104;2023-08-24T00:51:38;24.90;91.80
46159;DHT22;31888;44.512;26.104;2023-08-24T00:54:03;24.80;91.90
46159;DHT22;31888;44.512;26.104;2023-08-24T00:56:28;24.90;92.00
46159;DHT22;31888;44.512;26.104;2023-08-24T00:58:54;24.80;92.00
46159;DHT22;31888;44.512;26.104;2023-08-24T01:01:19;24.70;92.20
46159;DHT22;31888;44.512;26.104;2023-08-24T01:03:43;24.80;92.30
46159;DHT22;31888;44.512;26.104;2023-08-24T01:06:08;24.70;92.50
46159;DHT22;31888;44.512;26.104;2023-08-24T01:08:32;24.70;92.50
46159;DHT22;31888;44.512;26.104;2023-08-24T01:11:01;24.70;92.60
46159;DHT22;31888;44.512;26.104;2023-08-24T01:13:32;24.60;92.80
46159;DHT22;31888;44.512;26.104;2023-08-24T01:16:08;24.60;92.90
46159;DHT22;31888;44.512;26.104;2023-08-24T01:18:35;24.60;93.00
46159;DHT22;31888;44.512;26.104;2023-08-24T01:21:01;24.60;93.00
46159;DHT22;31888;44.512;26.104;2023-08-24T01:23:36;24.60;93.10
46159;DHT22;31888;44.512;26.104;2023-08-24T01:26:10;24.60;93.20
46159;DHT22;31888;44.512;26.104;2023-08-24T01:28:35;24.50;93.20
46159;DHT22;31888;44.512;26.104;2023-08-24T01:31:03;24.50;93.30
46159;DHT22;31888;44.512;26.104;2023-08-24T01:33:28;24.60;93.40
46159;DHT22;31888;44.512;26.104;2023-08-24T01:35:52;24.50;93.40
46159;DHT22;31888;44.512;26.104;2023-08-24T01:38:16;24.50;93.50
46159;DHT22;31888;44.512;26.104;2023-08-24T01:40:48;24.50;93.60
46159;DHT22;31888;44.512;26.104;2023-08-24T01:43:15;24.40;93.80
46159;DHT22;31888;44.512;26.104;2023-08-24T01:45:54;24.40;93.90
46159;DHT22;31888;44.512;26.104;2023-08-24T01:48:20;24.30;94.10
46159;DHT22;31888;44.512;26.104;2023-08-24T01:50:45;24.20;94.30
46159;DHT22;31888;44.512;26.104;2023-08-24T01:53:10;24.20;94.40
46159;DHT22;31888;44.512;26.104;2023-08-24T01:55:35;24.20;94.50
46159;DHT22;31888;44.512;26.104;2023-08-24T01:57:59;24.20;94.60
46159;DHT22;31888;44.512;26.104;2023-08-24T02:00:26;24.20;94.60
46159;DHT22;31888;44.512;26.104;2023-08-24T02:02:51;24.10;94.80
46159;DHT22;31888;44.512;26.104;2023-08-24T02:05:15;24.10;94.80
46159;DHT22;31888;44.512;26.104;2023-08-24T02:07:42;24.10;94.80
46159;DHT22;31888;44.512;26.104;2023-08-24T02:10:06;24.20;94.80
46159;DHT22;31888;44.512;26.104;2023-08-24T02:12:30;24.10;94.80
46159;DHT22;31888;44.512;26.104;2023-08-24T02:14:54;24.10;94.80
46159;DHT22;31888;44.512;26.104;2023-08-24T02:17:19;24.10;94.90
46159;DHT22;31888;44.512;26.104;2023-08-24T02:19:43;24.10;95.00
46159;DHT22;31888;44.512;26.104;2023-08-24T02:22:07;24.10;95.00
46159;DHT22;31888;44.512;26.104;2023-08-24T02:24:32;24.20;95.00
46159;DHT22;31888;44.512;26.104;2023-08-24T02:26:56;24.20;95.10
46159;DHT22;31888;44.512;26.104;2023-08-24T02:29:20;24.10;95.10
46159;DHT22;31888;44.512;26.104;2023-08-24T02:31:44;24.10;95.20
46159;DHT22;31888;44.512;26.104;2023-08-24T02:34:10;24.10;95.30
46159;DHT22;31888;44.512;26.104;2023-08-24T02:36:34;24.00;95.40
46159;DHT22;31888;44.512;26.104;2023-08-24T02:38:58;24.00;95.50
46159;DHT22;31888;44.512;26.104;2023-08-24T02:41:22;24.00;95.60
46159;DHT22;31888;44.512;26.104;2023-08-24T02:43:46;24.00;95.70
46159;DHT22;31888;44.512;26.104;2023-08-24T02:46:10;23.90;95.80
46159;DHT22;31888;44.512;26.104;2023-08-24T02:48:34;23.90;95.80
46159;DHT22;31888;44.512;26.104;2023-08-24T02:51:00;23.90;95.90
46159;DHT22;31888;44.512;26.104;2023-08-24T02:53:25;23.80;96.00
46159;DHT22;31888;44.512;26.104;2023-08-24T02:55:49;23.80;96.10
46159;DHT22;31888;44.512;26.104;2023-08-24T02:58:13;23.70;96.20
46159;DHT22;31888;44.512;26.104;2023-08-24T03:00:38;23.70;96.30
46159;DHT22;31888;44.512;26.104;2023-08-24T03:03:02;23.70;96.40
46159;DHT22;31888;44.512;26.104;2023-08-24T03:05:28;23.70;96.40
46159;DHT22;31888;44.512;26.104;2023-08-24T03:07:53;23.80;96.50
46159;DHT22;31888;44.512;26.104;2023-08-24T03:10:17;23.80;96.40
46159;DHT22;31888;44.512;26.104;2023-08-24T03:12:41;23.70;96.50
46159;DHT22;31888;44.512;26.104;2023-08-24T03:15:05;23.70;96.70
46159;DHT22;31888;44.512;26.104;2023-08-24T03:17:29;23.70;96.60
46159;DHT22;31888;44.512;26.104;2023-08-24T03:19:53;23.70;96.60
46159;DHT22;31888;44.512;26.104;2023-08-24T03:22:18;23.70;96.60
46159;DHT22;31888;44.512;26.104;2023-08-24T03:24:43;23.70;96.70
46159;DHT22;31888;44.512;26.104;2023-08-24T03:27:07;23.80;96.60
46159;DHT22;31888;44.512;26.104;2023-08-24T03:29:31;23.80;96.50
46159;DHT22;31888;44.512;26.104;2023-08-24T03:31:55;23.80;96.60
46159;DHT22;31888;44.512;26.104;2023-08-24T03:34:20;23.70;96.50
46159;DHT22;31888;44.512;26.104;2023-08-24T03:36:44;23.70;96.70
46159;DHT22;31888;44.512;26.104;2023-08-24T03:39:09;23.70;96.70
46159;DHT22;31888;44.512;26.104;2023-08-24T03:41:35;23.70;96.70
46159;DHT22;31888;44.512;26.104;2023-08-24T03:43:59;23.70;96.70
46159;DHT22;31888;44.512;26.104;2023-08-24T03:46:23;23.60;96.80
46159;DHT22;31888;44.512;26.104;2023-08-24T03:48:48;23.60;96.90
46159;DHT22;31888;44.512;26.104;2023-08-24T03:51:12;23.60;97.00
46159;DHT22;31888;44.512;26.104;2023-08-24T03:53:36;23.70;96.90
46159;DHT22;31888;44.512;26.104;2023-08-24T03:56:02;23.80;96.90
46159;DHT22;31888;44.512;26.104;2023-08-24T03:58:28;23.90;96.70
46159;DHT22;31888;44.512;26.104;2023-08-24T04:00:52;24.00;96.40
46159;DHT22;31888;44.512;26.104;2023-08-24T04:03:19;24.10;96.30
46159;DHT22;31888;44.512;26.104;2023-08-24T04:05:43;24.20;96.00
46159;DHT22;31888;44.512;26.104;2023-08-24T04:08:07;24.40;95.80
46159;DHT22;31888;44.512;26.104;2023-08-24T04:10:32;24.60;95.60
46159;DHT22;31888;44.512;26.104;2023-08-24T04:12:56;24.70;95.30
46159;DHT22;31888;44.512;26.104;2023-08-24T04:15:21;25.00;95.00
46159;DHT22;31888;44.512;26.104;2023-08-24T04:17:45;25.40;94.50
46159;DHT22;31888;44.512;26.104;2023-08-24T04:20:11;25.80;93.80
46159;DHT22;31888;44.512;26.104;2023-08-24T04:22:35;26.00;93.30
46159;DHT22;31888;44.512;26.104;2023-08-24T04:24:59;26.40;92.90
46159;DHT22;31888;44.512;26.104;2023-08-24T04:27:23;26.70;92.40
46159;DHT22;31888;44.512;26.104;2023-08-24T04:29:47;26.90;91.90
46159;DHT22;31888;44.512;26.104;2023-08-24T04:32:12;27.30;91.30
46159;DHT22;31888;44.512;26.104;2023-08-24T04:34:36;27.60;90.90
46159;DHT22;31888;44.512;26.104;2023-08-24T04:37:00;27.90;90.00
46159;DHT22;31888;44.512;26.104;2023-08-24T04:39:25;28.00;89.50
46159;DHT22;31888;44.512;26.104;2023-08-24T04:41:49;28.10;89.10
46159;DHT22;31888;44.512;26.104;2023-08-24T04:44:13;28.00;88.70
46159;DHT22;31888;44.512;26.104;2023-08-24T04:46:37;28.20;87.70
46159;DHT22;31888;44.512;26.104;2023-08-24T04:49:02;28.50;86.50
46159;DHT22;31888;44.512;26.104;2023-08-24T04:51:26;28.40;86.50
46159;DHT22;31888;44.512;26.104;2023-08-24T04:53:51;28.90;85.60
46159;DHT22;31888;44.512;26.104;2023-08-24T04:56:15;29.30;84.50
46159;DHT22;31888;44.512;26.104;2023-08-24T04:58:52;29.40;83.80
46159;DHT22;31888;44.512;26.104;2023-08-24T05:01:16;29.20;84.00
46159;DHT22;31888;44.512;26.104;2023-08-24T05:03:40;29.70;83.20
46159;DHT22;31888;44.512;26.104;2023-08-24T05:06:05;29.90;81.80
46159;DHT22;31888;44.512;26.104;2023-08-24T05:08:29;30.00;82.20
46159;DHT22;31888;44.512;26.104;2023-08-24T05:10:53;29.80;80.90
46159;DHT22;31888;44.512;26.104;2023-08-24T05:13:17;30.10;81.30
46159;DHT22;31888;44.512;26.104;2023-08-24T05:15:40;30.70;80.10
46159;DHT22;31888;44.512;26.104;2023-08-24T05:18:04;30.70;78.80
46159;DHT22;31888;44.512;26.104;2023-08-24T05:20:28;30.70;79.30
46159;DHT22;31888;44.512;26.104;2023-08-24T05:22:54;30.80;78.40
46159;DHT22;31888;44.512;26.104;2023-08-24T05:25:18;30.40;78.70
46159;DHT22;31888;44.512;26.104;2023-08-24T05:27:42;30.10;79.50
46159;DHT22;31888;44.512;26.104;2023-08-24T05:30:07;29.30;80.80
46159;DHT22;31888;44.512;26.104;2023-08-24T05:32:31;28.70;82.00
46159;DHT22;31888;44.512;26.104;2023-08-24T05:34:55;28.60;83.00
46159;DHT22;31888;44.512;26.104;2023-08-24T05:37:19;28.00;83.90
46159;DHT22;31888;44.512;26.104;2023-08-24T05:39:44;27.90;84.90
46159;DHT22;31888;44.512;26.104;2023-08-24T05:42:08;27.90;85.00
46159;DHT22;31888;44.512;26.104;2023-08-24T05:44:32;27.90;84.70
46159;DHT22;31888;44.512;26.104;2023-08-24T05:46:56;27.70;85.00
46159;DHT22;31888;44.512;26.104;2023-08-24T05:49:20;27.70;85.30
46159;DHT22;31888;44.512;26.104;2023-08-24T05:51:44;27.70;85.50
46159;DHT22;31888;44.512;26.104;2023-08-24T05:54:08;27.50;86.30
46159;DHT22;31888;44.512;26.104;2023-08-24T05:56:33;27.40;86.30
46159;DHT22;31888;44.512;26.104;2023-08-24T05:58:58;27.30;87.00
46159;DHT22;31888;44.512;26.104;2023-08-24T06:01:22;27.80;85.90
46159;DHT22;31888;44.512;26.104;2023-08-24T06:03:46;28.70;84.50
46159;DHT22;31888;44.512;26.104;2023-08-24T06:06:10;29.50;82.00
46159;DHT22;31888;44.512;26.104;2023-08-24T06:08:34;29.30;81.90
46159;DHT22;31888;44.512;26.104;2023-08-24T06:10:58;30.00;81.30
46159;DHT22;31888;44.512;26.104;2023-08-24T06:13:23;29.50;81.30
46159;DHT22;31888;44.512;26.104;2023-08-24T06:15:47;28.90;83.00
46159;DHT22;31888;44.512;26.104;2023-08-24T06:18:11;28.90;83.30
46159;DHT22;31888;44.512;26.104;2023-08-24T06:20:36;28.90;83.40
46159;DHT22;31888;44.512;26.104;2023-08-24T06:23:00;28.70;83.00
46159;DHT22;31888;44.512;26.104;2023-08-24T06:25:24;28.30;84.40
46159;DHT22;31888;44.512;26.104;2023-08-24T06:27:48;28.50;84.70
46159;DHT22;31888;44.512;26.104;2023-08-24T06:30:14;28.80;84.20
46159;DHT22;31888;44.512;26.104;2023-08-24T06:32:39;29.00;82.80
46159;DHT22;31888;44.512;26.104;2023-08-24T06:35:03;29.00;83.00
46159;DHT22;31888;44.512;26.104;2023-08-24T06:37:28;29.20;82.80
46159;DHT22;31888;44.512;26.104;2023-08-24T06:39:52;29.30;82.20
46159;DHT22;31888;44.512;26.104;2023-08-24T06:42:16;29.40;81.80
46159;DHT22;31888;44.512;26.104;2023-08-24T06:44:41;30.50;80.70
46159;DHT22;31888;44.512;26.104;2023-08-24T06:47:06;30.50;79.30
46159;DHT22;31888;44.512;26.104;2023-08-24T06:49:31;30.60;79.60
46159;DHT22;31888;44.512;26.104;2023-08-24T06:51:55;30.60;79.00
46159;DHT22;31888;44.512;26.104;2023-08-24T06:54:19;30.10;79.50
46159;DHT22;31888;44.512;26.104;2023-08-24T06:56:42;29.70;80.40
46159;DHT22;31888;44.512;26.104;2023-08-24T06:59:06;29.20;81.00
46159;DHT22;31888;44.512;26.104;2023-08-24T07:01:31;29.00;82.40
46159;DHT22;31888;44.512;26.104;2023-08-24T07:03:57;29.00;82.30
46159;DHT22;31888;44.512;26.104;2023-08-24T07:06:21;29.20;82.40
46159;DHT22;31888;44.512;26.104;2023-08-24T07:08:45;29.00;82.10
46159;DHT22;31888;44.512;26.104;2023-08-24T07:11:10;28.90;83.00
46159;DHT22;31888;44.512;26.104;2023-08-24T07:13:36;29.60;81.20
46159;DHT22;31888;44.512;26.104;2023-08-24T07:16:00;29.90;80.20
46159;DHT22;31888;44.512;26.104;2023-08-24T07:18:25;29.80;80.20
46159;DHT22;31888;44.512;26.104;2023-08-24T07:20:50;29.80;80.40
46159;DHT22;31888;44.512;26.104;2023-08-24T07:23:14;29.40;81.30
46159;DHT22;31888;44.512;26.104;2023-08-24T07:25:38;29.70;81.60
46159;DHT22;31888;44.512;26.104;2023-08-24T07:28:03;29.90;80.60
46159;DHT22;31888;44.512;26.104;2023-08-24T07:30:27;29.70;80.80
46159;DHT22;31888;44.512;26.104;2023-08-24T07:32:56;29.50;81.00
46159;DHT22;31888;44.512;26.104;2023-08-24T07:35:20;29.60;81.10
46159;DHT22;31888;44.512;26.104;2023-08-24T07:37:48;30.00;80.60
46159;DHT22;31888;44.512;26.104;2023-08-24T07:40:12;30.80;79.20
46159;DHT22;31888;44.512;26.104;2023-08-24T07:42:43;31.00;77.30
46159;DHT22;31888;44.512;26.104;2023-08-24T07:45:08;30.90;77.50
46159;DHT22;31888;44.512;26.104;2023-08-24T07:47:32;30.50;77.40
46159;DHT22;31888;44.512;26.104;2023-08-24T07:49:55;30.10;78.60
46159;DHT22;31888;44.512;26.104;2023-08-24T07:52:19;29.90;79.40
46159;DHT22;31888;44.512;26.104;2023-08-24T07:54:45;30.10;78.60
46159;DHT22;31888;44.512;26.104;2023-08-24T07:57:09;30.50;78.50
46159;DHT22;31888;44.512;26.104;2023-08-24T07:59:33;30.80;77.60
46159;DHT22;31888;44.512;26.104;2023-08-24T08:01:57;31.50;76.00
46159;DHT22;31888;44.512;26.104;2023-08-24T08:04:21;31.60;75.40
46159;DHT22;31888;44.512;26.104;2023-08-24T08:06:45;32.30;74.30
46159;DHT22;31888;44.512;26.104;2023-08-24T08:09:09;33.10;72.30
46159;DHT22;31888;44.512;26.104;2023-08-24T08:11:34;32.90;72.30
46159;DHT22;31888;44.512;26.104;2023-08-24T08:13:58;32.40;73.00
46159;DHT22;31888;44.512;26.104;2023-08-24T08:16:22;32.50;73.20
46159;DHT22;31888;44.512;26.104;2023-08-24T08:18:46;32.50;72.70
46159;DHT22;31888;44.512;26.104;2023-08-24T08:21:10;32.30;73.40
46159;DHT22;31888;44.512;26.104;2023-08-24T08:23:35;32.60;73.20
46159;DHT22;31888;44.512;26.104;2023-08-24T08:25:58;33.10;72.30
46159;DHT22;31888;44.512;26.104;2023-08-24T08:28:24;32.70;71.60
46159;DHT22;31888;44.512;26.104;2023-08-24T08:30:48;32.50;72.30
46159;DHT22;31888;44.512;26.104;2023-08-24T08:33:12;32.00;73.10
46159;DHT22;31888;44.512;26.104;2023-08-24T08:35:37;32.00;73.60
46159;DHT22;31888;44.512;26.104;2023-08-24T08:38:01;32.00;73.60
46159;DHT22;31888;44.512;26.104;2023-08-24T08:40:26;32.30;72.90
46159;DHT22;31888;44.512;26.104;2023-08-24T08:42:53;32.10;73.10
46159;DHT22;31888;44.512;26.104;2023-08-24T08:45:21;31.40;74.60
46159;DHT22;31888;44.512;26.104;2023-08-24T08:47:48;31.30;74.10
46159;DHT22;31888;44.512;26.104;2023-08-24T08:50:12;31.30;75.20
46159;DHT22;31888;44.512;26.104;2023-08-24T08:52:36;31.60;75.10
46159;DHT22;31888;44.512;26.104;2023-08-24T08:55:00;31.70;75.10
46159;DHT22;31888;44.512;26.104;2023-08-24T08:57:28;31.90;74.40
46159;DHT22;31888;44.512;26.104;2023-08-24T08:59:55;31.80;74.50
46159;DHT22;31888;44.512;26.104;2023-08-24T09:02:21;31.80;74.00
46159;DHT22;31888;44.512;26.104;2023-08-24T09:04:47;31.80;74.20
46159;DHT22;31888;44.512;26.104;2023-08-24T09:07:13;32.00;74.50
46159;DHT22;31888;44.512;26.104;2023-08-24T09:09:38;31.80;73.40
46159;DHT22;31888;44.512;26.104;2023-08-24T09:12:03;31.80;73.10
46159;DHT22;31888;44.512;26.104;2023-08-24T09:14:28;31.70;73.40
46159;DHT22;31888;44.512;26.104;2023-08-24T09:16:52;31.80;73.50
46159;DHT22;31888;44.512;26.104;2023-08-24T09:19:17;31.50;72.90
46159;DHT22;31888;44.512;26.104;2023-08-24T09:21:41;31.20;74.10
46159;DHT22;31888;44.512;26.104;2023-08-24T09:24:06;31.30;74.70
46159;DHT22;31888;44.512;26.104;2023-08-24T09:26:31;31.50;74.90
46159;DHT22;31888;44.512;26.104;2023-08-24T09:28:56;31.70;74.20
46159;DHT22;31888;44.512;26.104;2023-08-24T09:31:19;31.80;73.70
46159;DHT22;31888;44.512;26.104;2023-08-24T09:33:43;32.00;73.20
46159;DHT22;31888;44.512;26.104;2023-08-24T09:36:10;32.00;72.80
46159;DHT22;31888;44.512;26.104;2023-08-24T09:38:33;32.20;72.50
46159;DHT22;31888;44.512;26.104;2023-08-24T09:40:58;32.20;72.70
46159;DHT22;31888;44.512;26.104;2023-08-24T09:43:25;32.30;72.60
46159;DHT22;31888;44.512;26.104;2023-08-24T09:45:50;32.10;73.30
46159;DHT22;31888;44.512;26.104;2023-08-24T09:48:14;32.20;73.40
46159;DHT22;31888;44.512;26.104;2023-08-24T09:50:39;32.10;73.30
46159;DHT22;31888;44.512;26.104;2023-08-24T09:53:05;31.80;73.90
46159;DHT22;31888;44.512;26.104;2023-08-24T09:55:30;32.10;72.90
46159;DHT22;31888;44.512;26.104;2023-08-24T09:57:56;32.30;72.80
46159;DHT22;31888;44.512;26.104;2023-08-24T10:00:22;32.10;72.90
46159;DHT22;31888;44.512;26.104;2023-08-24T10:02:49;32.20;71.70
46159;DHT22;31888;44.512;26.104;2023-08-24T10:05:15;32.40;72.30
46159;DHT22;31888;44.512;26.104;2023-08-24T10:08:05;32.40;72.60
46159;DHT22;31888;44.512;26.104;2023-08-24T10:10:32;32.40;72.60
46159;DHT22;31888;44.512;26.104;2023-08-24T10:12:59;32.10;73.10
46159;DHT22;31888;44.512;26.104;2023-08-24T10:15:24;32.30;73.50
46159;DHT22;31888;44.512;26.104;2023-08-24T10:17:50;32.20;73.10
46159;DHT22;31888;44.512;26.104;2023-08-24T10:20:14;32.50;73.00
46159;DHT22;31888;44.512;26.104;2023-08-24T10:22:39;32.40;73.00
46159;DHT22;31888;44.512;26.104;2023-08-24T10:25:06;32.40;72.80
46159;DHT22;31888;44.512;26.104;2023-08-24T10:27:30;32.70;72.60
46159;DHT22;31888;44.512;26.104;2023-08-24T10:29:54;32.40;71.90
46159;DHT22;31888;44.512;26.104;2023-08-24T10:32:19;32.20;72.40
46159;DHT22;31888;44.512;26.104;2023-08-24T10:34:44;32.10;72.70
46159;DHT22;31888;44.512;26.104;2023-08-24T10:37:09;32.20;72.60
46159;DHT22;31888;44.512;26.104;2023-08-24T10:39:33;32.30;72.00
46159;DHT22;31888;44.512;26.104;2023-08-24T10:42:02;32.50;72.80
46159;DHT22;31888;44.512;26.104;2023-08-24T10:44:34;32.50;71.70
46159;DHT22;31888;44.512;26.104;2023-08-24T10:47:10;32.60;71.90
46159;DHT22;31888;44.512;26.104;2023-08-24T10:49:36;32.90;70.90
46159;DHT22;31888;44.512;26.104;2023-08-24T10:52:16;33.00;70.50
46159;DHT22;31888;44.512;26.104;2023-08-24T10:54:42;32.80;71.80
46159;DHT22;31888;44.512;26.104;2023-08-24T10:57:17;32.70;71.20
46159;DHT22;31888;44.512;26.104;2023-08-24T10:59:40;32.50;70.90
46159;DHT22;31888;44.512;26.104;2023-08-24T11:02:19;32.50;71.00
46159;DHT22;31888;44.512;26.104;2023-08-24T11:05:04;32.50;71.30
46159;DHT22;31888;44.512;26.104;2023-08-24T11:07:28;32.60;71.00
46159;DHT22;31888;44.512;26.104;2023-08-24T11:09:52;32.60;71.60
46159;DHT22;31888;44.512;26.104;2023-08-24T11:12:17;32.70;71.60
46159;DHT22;31888;44.512;26.104;2023-08-24T11:14:48;32.90;71.00
46159;DHT22;31888;44.512;26.104;2023-08-24T11:17:22;32.90;71.00
46159;DHT22;31888;44.512;26.104;2023-08-24T11:19:50;33.10;71.00
46159;DHT22;31888;44.512;26.104;2023-08-24T11:22:14;32.90;70.10
46159;DHT22;31888;44.512;26.104;2023-08-24T11:24:38;32.70;70.50
46159;DHT22;31888;44.512;26.104;2023-08-24T11:27:02;32.50;70.80
46159;DHT22;31888;44.512;26.104;2023-08-24T11:29:28;32.70;70.70
46159;DHT22;31888;44.512;26.104;2023-08-24T11:31:52;32.70;70.60
46159;DHT22;31888;44.512;26.104;2023-08-24T11:34:16;32.70;70.80
46159;DHT22;31888;44.512;26.104;2023-08-24T11:36:43;32.80;70.50
46159;DHT22;31888;44.512;26.104;2023-08-24T11:39:14;32.90;70.30
46159;DHT22;31888;44.512;26.104;2023-08-24T11:41:38;33.00;70.00
46159;DHT22;31888;44.512;26.104;2023-08-24T11:44:02;32.80;70.10
46159;DHT22;31888;44.512;26.104;2023-08-24T11:46:45;32.60;70.50
46159;DHT22;31888;44.512;26.104;2023-08-24T11:49:09;32.80;70.40
46159;DHT22;31888;44.512;26.104;2023-08-24T11:51:33;32.90;69.90
46159;DHT22;31888;44.512;26.104;2023-08-24T11:54:09;32.80;69.90
46159;DHT22;31888;44.512;26.104;2023-08-24T11:56:32;32.90;69.80
46159;DHT22;31888;44.512;26.104;2023-08-24T11:58:58;33.00;69.60
46159;DHT22;31888;44.512;26.104;2023-08-24T12:01:22;33.10;69.30
46159;DHT22;31888;44.512;26.104;2023-08-24T12:03:51;33.10;69.50
46159;DHT22;31888;44.512;26.104;2023-08-24T12:06:15;33.10;68.70
46159;DHT22;31888;44.512;26.104;2023-08-24T12:08:40;33.20;68.80
46159;DHT22;31888;44.512;26.104;2023-08-24T12:11:11;33.30;68.40
46159;DHT22;31888;44.512;26.104;2023-08-24T12:13:34;33.50;69.00
46159;DHT22;31888;44.512;26.104;2023-08-24T12:15:58;33.40;68.70
46159;DHT22;31888;44.512;26.104;2023-08-24T12:18:24;33.50;68.20
46159;DHT22;31888;44.512;26.104;2023-08-24T12:20:49;33.40;68.60
46159;DHT22;31888;44.512;26.104;2023-08-24T12:23:13;33.40;68.80
46159;DHT22;31888;44.512;26.104;2023-08-24T12:25:37;33.40;68.80
46159;DHT22;31888;44.512;26.104;2023-08-24T12:28:09;33.40;69.00
46159;DHT22;31888;44.512;26.104;2023-08-24T12:30:43;33.40;68.20
46159;DHT22;31888;44.512;26.104;2023-08-24T12:33:07;33.30;68.30
46159;DHT22;31888;44.512;26.104;2023-08-24T12:35:31;33.40;68.70
46159;DHT22;31888;44.512;26.104;2023-08-24T12:37:56;33.60;68.80
46159;DHT22;31888;44.512;26.104;2023-08-24T12:40:20;33.70;67.70
46159;DHT22;31888;44.512;26.104;2023-08-24T12:42:46;33.80;67.30
46159;DHT22;31888;44.512;26.104;2023-08-24T12:45:10;33.80;67.00
46159;DHT22;31888;44.512;26.104;2023-08-24T12:47:34;33.70;67.70
46159;DHT22;31888;44.512;26.104;2023-08-24T12:50:00;33.60;67.60
46159;DHT22;31888;44.512;26.104;2023-08-24T12:52:25;33.60;67.80
46159;DHT22;31888;44.512;26.104;2023-08-24T12:54:50;33.60;67.40
46159;DHT22;31888;44.512;26.104;2023-08-24T12:57:14;33.60;68.00
46159;DHT22;31888;44.512;26.104;2023-08-24T12:59:38;33.60;67.60
46159;DHT22;31888;44.512;26.104;2023-08-24T13:02:02;33.50;67.10
46159;DHT22;31888;44.512;26.104;2023-08-24T13:04:26;33.60;67.10
46159;DHT22;31888;44.512;26.104;2023-08-24T13:06:53;33.60;67.00
46159;DHT22;31888;44.512;26.104;2023-08-24T13:09:17;33.70;67.20
46159;DHT22;31888;44.512;26.104;2023-08-24T13:11:42;33.80;67.10
46159;DHT22;31888;44.512;26.104;2023-08-24T13:14:06;33.90;66.80
46159;DHT22;31888;44.512;26.104;2023-08-24T13:16:30;34.00;66.70
46159;DHT22;31888;44.512;26.104;2023-08-24T13:18:54;34.00;67.20
46159;DHT22;31888;44.512;26.104;2023-08-24T13:21:16;34.00;67.10
46159;DHT22;31888;44.512;26.104;2023-08-24T13:23:40;34.00;66.70
46159;DHT22;31888;44.512;26.104;2023-08-24T13:26:04;33.80;66.70
46159;DHT22;31888;44.512;26.104;2023-08-24T13:28:29;33.90;66.60
46159;DHT22;31888;44.512;26.104;2023-08-24T13:30:53;34.00;66.90
46159;DHT22;31888;44.512;26.104;2023-08-24T13:33:17;34.00;67.10
46159;DHT22;31888;44.512;26.104;2023-08-24T13:35:42;34.00;66.90
46159;DHT22;31888;44.512;26.104;2023-08-24T13:38:05;34.00;67.10
46159;DHT22;31888;44.512;26.104;2023-08-24T13:40:29;34.10;66.70
46159;DHT22;31888;44.512;26.104;2023-08-24T13:42:53;34.20;66.50
46159;DHT22;31888;44.512;26.104;2023-08-24T13:45:18;34.20;66.40
46159;DHT22;31888;44.512;26.104;2023-08-24T13:47:42;34.30;66.40
46159;DHT22;31888;44.512;26.104;2023-08-24T13:50:07;34.30;66.60
46159;DHT22;31888;44.512;26.104;2023-08-24T13:52:31;34.10;66.00
46159;DHT22;31888;44.512;26.104;2023-08-24T13:54:55;34.00;66.60
46159;DHT22;31888;44.512;26.104;2023-08-24T13:57:33;34.00;66.90
46159;DHT22;31888;44.512;26.104;2023-08-24T13:59:56;33.90;67.00
46159;DHT22;31888;44.512;26.104;2023-08-24T14:02:23;33.90;67.20
46159;DHT22;31888;44.512;26.104;2023-08-24T14:04:47;33.90;67.50
46159;DHT22;31888;44.512;26.104;2023-08-24T14:07:11;34.00;67.00
46159;DHT22;31888;44.512;26.104;2023-08-24T14:09:37;34.00;66.60
46159;DHT22;31888;44.512;26.104;2023-08-24T14:12:13;34.00;66.70
46159;DHT22;31888;44.512;26.104;2023-08-24T14:14:36;34.00;66.70
46159;DHT22;31888;44.512;26.104;2023-08-24T14:17:00;33.90;66.80
46159;DHT22;31888;44.512;26.104;2023-08-24T14:19:26;33.70;66.70
46159;DHT22;31888;44.512;26.104;2023-08-24T14:21:50;33.70;67.20
46159;DHT22;31888;44.512;26.104;2023-08-24T14:24:13;33.60;67.30
46159;DHT22;31888;44.512;26.104;2023-08-24T14:26:37;33.60;67.50
46159;DHT22;31888;44.512;26.104;2023-08-24T14:29:07;33.60;67.60
46159;DHT22;31888;44.512;26.104;2023-08-24T14:31:31;33.60;67.30
46159;DHT22;31888;44.512;26.104;2023-08-24T14:33:56;33.70;67.30
46159;DHT22;31888;44.512;26.104;2023-08-24T14:36:22;33.70;67.40
46159;DHT22;31888;44.512;26.104;2023-08-24T14:38:46;33.70;67.30
46159;DHT22;31888;44.512;26.104;2023-08-24T14:41:11;33.60;67.20
46159;DHT22;31888;44.512;26.104;2023-08-24T14:43:35;33.50;67.60
46159;DHT22;31888;44.512;26.104;2023-08-24T14:45:58;33.60;67.30
46159;DHT22;31888;44.512;26.104;2023-08-24T14:48:22;33.50;67.40
46159;DHT22;31888;44.512;26.104;2023-08-24T14:50:46;33.50;67.20
46159;DHT22;31888;44.512;26.104;2023-08-24T14:53:11;33.50;67.30
46159;DHT22;31888;44.512;26.104;2023-08-24T14:55:37;33.50;67.60
46159;DHT22;31888;44.512;26.104;2023-08-24T14:58:01;33.50;67.70
46159;DHT22;31888;44.512;26.104;2023-08-24T15:00:25;33.50;67.90
46159;DHT22;31888;44.512;26.104;2023-08-24T15:02:49;33.50;67.80